createdAt,value
2018-04-02T00:01:05.309Z,37.17
2018-04-02T00:03:33.079Z,33.43
2018-04-02T00:06:01.572Z,33.87
2018-04-02T00:08:30.229Z,33.30
2018-04-02T00:10:58.935Z,33.30
2018-04-02T00:13:29.648Z,33.07
2018-04-02T00:15:58.187Z,34.63
2018-04-02T00:18:28.079Z,33.93
2018-04-02T00:20:58.668Z,35.80
2018-04-02T00:23:27.092Z,32.97
2018-04-02T00:25:56.357Z,33.23
2018-04-02T00:28:25.049Z,35.47
2018-04-02T00:30:53.306Z,37.83
2018-04-02T00:33:21.039Z,36.17
2018-04-02T00:35:49.664Z,36.20
2018-04-02T00:38:17.532Z,35.67
2018-04-02T00:40:46.444Z,37.10
2018-04-02T00:43:14.712Z,35.30
2018-04-02T00:45:43.740Z,36.20
2018-04-02T00:48:11.744Z,37.27
2018-04-02T00:50:41.259Z,34.13
2018-04-02T00:53:11.515Z,34.17
2018-04-02T00:55:40.191Z,35.17
2018-04-02T00:58:09.703Z,35.10
2018-04-02T01:00:37.913Z,36.07
2018-04-02T01:03:07.200Z,37.10
2018-04-02T01:05:35.657Z,36.90
2018-04-02T01:08:03.396Z,37.73
2018-04-02T01:10:32.164Z,37.57
2018-04-02T01:12:59.849Z,38.67
2018-04-02T01:15:27.633Z,36.47
2018-04-02T01:17:55.377Z,39.00
2018-04-02T01:20:23.248Z,37.97
2018-04-02T01:22:51.128Z,38.17
2018-04-02T01:25:20.150Z,36.77
2018-04-02T01:27:47.957Z,37.23
2018-04-02T01:30:16.006Z,37.57
2018-04-02T01:32:44.450Z,37.40
2018-04-02T01:35:12.314Z,36.80
2018-04-02T01:37:41.529Z,37.27
2018-04-02T01:40:11.629Z,38.83
2018-04-02T01:42:40.344Z,39.13
2018-04-02T01:45:45.056Z,39.97
2018-04-02T01:48:14.119Z,40.23
2018-04-02T01:50:42.822Z,39.50
2018-04-02T01:53:10.633Z,38.67
2018-04-02T01:55:38.748Z,37.03
2018-04-02T01:58:07.300Z,39.40
2018-04-02T02:00:37.013Z,40.47
2018-04-02T02:03:07.240Z,38.73
2018-04-02T02:05:35.112Z,37.57
2018-04-02T02:08:03.698Z,38.97
2018-04-02T02:10:31.598Z,39.13
2018-04-02T02:12:59.340Z,40.53
2018-04-02T02:15:27.408Z,41.07
2018-04-02T02:17:56.146Z,42.40
2018-04-02T02:20:25.280Z,44.57
2018-04-02T02:22:53.524Z,42.63
2018-04-02T02:25:21.364Z,42.43
2018-04-02T02:27:50.536Z,42.17
2018-04-02T02:30:21.125Z,41.47
2018-04-02T02:32:49.751Z,39.83
2018-04-02T02:35:17.789Z,42.53
2018-04-02T02:37:46.509Z,41.30
2018-04-02T02:40:14.949Z,42.17
2018-04-02T02:42:43.633Z,43.90
2018-04-02T02:45:13.015Z,44.90
2018-04-02T02:47:40.723Z,43.20
2018-04-02T02:50:09.092Z,43.97
2018-04-02T02:52:36.825Z,45.63
2018-04-02T02:55:06.009Z,47.37
2018-04-02T02:57:36.054Z,45.47
2018-04-02T03:00:04.535Z,43.07
2018-04-02T03:02:32.316Z,44.63
2018-04-02T03:05:00.048Z,45.50
2018-04-02T03:07:28.444Z,46.37
2018-04-02T03:09:56.528Z,45.70
2018-04-02T03:12:25.792Z,46.00
2018-04-02T03:14:55.870Z,46.00
2018-04-02T03:17:25.091Z,47.83
2018-04-02T03:19:53.744Z,50.10
2018-04-02T03:22:21.491Z,50.17
2018-04-02T03:24:49.557Z,52.23
2018-04-02T03:27:17.591Z,50.63
2018-04-02T03:29:47.162Z,49.87
2018-04-02T03:32:15.125Z,50.50
2018-04-02T03:34:43.545Z,48.70
2018-04-02T03:37:11.283Z,51.00
2018-04-02T03:39:41.337Z,53.93
2018-04-02T03:42:09.058Z,55.57
2018-04-02T03:44:37.442Z,55.60
2018-04-02T03:47:06.982Z,56.47
2018-04-02T03:49:35.584Z,56.07
2018-04-02T03:52:04.058Z,55.23
2018-04-02T03:54:31.830Z,54.03
2018-04-02T03:57:00.184Z,54.63
2018-04-02T03:59:27.845Z,53.83
2018-04-02T04:01:56.564Z,53.37
2018-04-02T04:04:24.388Z,54.20
2018-04-02T04:06:52.406Z,53.13
2018-04-02T04:09:20.330Z,50.37
2018-04-02T04:11:48.411Z,52.33
2018-04-02T04:14:16.859Z,48.60
2018-04-02T04:16:44.765Z,48.13
2018-04-02T04:19:12.560Z,46.67
2018-04-02T04:21:40.231Z,47.70
2018-04-02T04:24:09.467Z,46.17
2018-04-02T04:26:38.917Z,46.47
2018-04-02T04:29:07.224Z,44.80
2018-04-02T04:31:34.997Z,44.33
2018-04-02T04:34:04.170Z,43.13
2018-04-02T04:36:31.887Z,42.73
2018-04-02T04:39:00.444Z,39.70
2018-04-02T04:41:28.975Z,39.03
2018-04-02T04:43:57.806Z,40.00
2018-04-02T04:46:25.824Z,38.90
2018-04-02T04:48:54.372Z,39.63
2018-04-02T04:51:22.093Z,38.77
2018-04-02T04:53:49.848Z,39.57
2018-04-02T04:56:18.934Z,40.57
2018-04-02T04:58:47.124Z,42.03
2018-04-02T05:01:17.120Z,41.37
2018-04-02T05:03:45.021Z,44.30
2018-04-02T05:06:12.869Z,42.70
2018-04-02T05:08:42.051Z,43.33
2018-04-02T05:11:09.732Z,41.67
2018-04-02T05:13:39.998Z,43.07
2018-04-02T05:16:08.745Z,44.00
2018-04-02T05:18:38.423Z,44.20
2018-04-02T05:21:08.728Z,43.90
2018-04-02T05:23:37.227Z,43.67
2018-04-02T05:26:07.600Z,44.60
2018-04-02T05:28:37.328Z,44.53
2018-04-02T05:31:05.010Z,45.73
2018-04-02T05:33:33.050Z,45.77
2018-04-02T05:36:01.456Z,48.40
2018-04-02T05:38:31.232Z,46.97
2018-04-02T05:40:59.260Z,47.87
2018-04-02T05:43:28.409Z,45.57
2018-04-02T05:45:56.957Z,44.63
2018-04-02T05:48:25.893Z,43.23
2018-04-02T05:50:53.793Z,44.83
2018-04-02T05:53:22.671Z,44.60
2018-04-02T05:55:52.648Z,46.00
2018-04-02T05:58:21.038Z,46.63
2018-04-02T06:00:49.607Z,45.17
2018-04-02T06:03:18.171Z,47.87
2018-04-02T06:05:51.526Z,47.37
2018-04-02T06:08:21.636Z,47.60
2018-04-02T06:10:50.210Z,47.10
2018-04-02T06:13:18.152Z,48.13
2018-04-02T06:15:46.700Z,47.87
2018-04-02T06:18:16.390Z,48.00
2018-04-02T06:20:44.660Z,48.47
2018-04-02T06:23:14.399Z,49.53
2018-04-02T06:25:46.893Z,48.50
2018-04-02T06:28:17.635Z,49.60
2018-04-02T06:30:47.193Z,49.77
2018-04-02T06:33:15.049Z,48.53
2018-04-02T06:35:45.477Z,50.50
2018-04-02T06:38:13.929Z,46.80
2018-04-02T06:40:53.275Z,46.47
2018-04-02T06:43:20.978Z,47.33
2018-04-02T06:45:53.868Z,47.63
2018-04-02T06:48:24.622Z,47.27
2018-04-02T06:50:52.978Z,49.53
2018-04-02T06:53:21.450Z,50.63
2018-04-02T06:55:49.675Z,51.37
2018-04-02T06:58:18.454Z,51.33
2018-04-02T07:00:46.154Z,50.57
2018-04-02T07:03:15.598Z,49.83
2018-04-02T07:05:45.294Z,49.90
2018-04-02T07:08:15.043Z,48.03
2018-04-02T07:10:45.817Z,48.47
2018-04-02T07:13:14.858Z,48.77
2018-04-02T07:15:47.404Z,45.73
2018-04-02T07:18:16.160Z,45.63
2018-04-02T07:20:45.825Z,47.50
2018-04-02T07:23:15.505Z,46.10
2018-04-02T07:25:43.837Z,47.13
2018-04-02T07:28:12.765Z,47.80
2018-04-02T07:30:41.253Z,49.07
2018-04-02T07:33:10.144Z,46.70
2018-04-02T07:35:38.748Z,47.17
2018-04-02T07:38:08.312Z,44.97
2018-04-02T07:40:36.205Z,45.90
2018-04-02T07:43:05.421Z,44.37
2018-04-02T07:45:34.372Z,45.30
2018-04-02T07:48:02.898Z,45.27
2018-04-02T07:50:30.875Z,45.60
2018-04-02T07:52:58.709Z,44.43
2018-04-02T07:55:27.268Z,41.67
2018-04-02T07:57:55.233Z,43.23
2018-04-02T08:00:24.935Z,42.43
2018-04-02T08:02:54.338Z,42.07
2018-04-02T08:05:22.239Z,42.73
2018-04-02T08:07:49.962Z,41.50
2018-04-02T08:10:20.214Z,42.00
2018-04-02T08:12:48.674Z,40.17
2018-04-02T08:15:16.378Z,40.47
2018-04-02T08:17:44.209Z,40.90
2018-04-02T08:20:11.991Z,39.43
2018-04-02T08:22:39.763Z,40.57
2018-04-02T08:25:07.370Z,38.03
2018-04-02T08:27:34.979Z,40.17
2018-04-02T08:30:02.634Z,39.60
2018-04-02T08:32:30.299Z,37.57
2018-04-02T08:34:57.879Z,36.53
2018-04-02T08:37:25.473Z,36.27
2018-04-02T08:39:53.052Z,36.13
2018-04-02T08:42:20.645Z,36.63
2018-04-02T08:44:48.307Z,36.07
2018-04-02T08:47:15.930Z,36.13
2018-04-02T08:49:43.538Z,36.63
2018-04-02T08:52:11.136Z,32.67
2018-04-02T08:54:38.714Z,31.33
2018-04-02T08:57:06.300Z,30.87
2018-04-02T08:59:34.672Z,31.20
2018-04-02T09:02:02.260Z,31.00
2018-04-02T09:04:30.620Z,31.60
2018-04-02T09:06:58.990Z,30.03
2018-04-02T09:09:26.589Z,30.23
2018-04-02T09:11:54.165Z,30.03
2018-04-02T09:14:21.748Z,28.87
2018-04-02T09:16:49.375Z,27.83
2018-04-02T09:19:17.719Z,27.37
2018-04-02T09:21:45.449Z,27.53
2018-04-02T09:24:13.078Z,25.53
2018-04-02T09:26:40.690Z,27.23
2018-04-02T09:29:08.286Z,25.60
2018-04-02T09:31:35.895Z,25.23
2018-04-02T09:34:04.258Z,24.13
2018-04-02T09:36:31.846Z,24.50
2018-04-02T09:38:59.486Z,24.37
2018-04-02T09:41:27.134Z,23.60
2018-04-02T09:43:54.726Z,21.33
2018-04-02T09:46:22.300Z,22.33
2018-04-02T09:48:49.876Z,22.07
2018-04-02T09:51:19.030Z,21.40
2018-04-02T09:53:46.671Z,22.13
2018-04-02T09:56:14.280Z,21.00
2018-04-02T09:58:41.891Z,21.70
2018-04-02T10:01:12.285Z,20.90
2018-04-02T10:03:40.698Z,20.30
2018-04-02T10:06:09.055Z,19.80
2018-04-02T10:08:36.645Z,19.70
2018-04-02T10:11:04.225Z,19.47
2018-04-02T10:13:31.846Z,18.10
2018-04-02T10:15:59.478Z,19.20
2018-04-02T10:18:27.079Z,19.80
2018-04-02T10:20:54.765Z,19.07
2018-04-02T10:23:22.360Z,18.10
2018-04-02T10:25:49.991Z,17.33
2018-04-02T10:28:18.345Z,18.30
2018-04-02T10:30:46.019Z,17.70
2018-04-02T10:33:13.571Z,17.10
2018-04-02T10:35:41.212Z,16.90
2018-04-02T10:38:08.835Z,14.27
2018-04-02T10:40:37.220Z,14.23
2018-04-02T10:43:04.807Z,14.23
2018-04-02T10:45:32.442Z,15.23
2018-04-02T10:48:00.802Z,15.33
2018-04-02T10:50:28.455Z,15.43
2018-04-02T10:52:56.068Z,15.80
2018-04-02T10:55:24.442Z,15.73
2018-04-02T10:57:52.787Z,15.63
2018-04-02T11:00:20.367Z,15.57
2018-04-02T11:02:50.551Z,15.23
2018-04-02T11:05:18.217Z,15.67
2018-04-02T11:07:45.833Z,15.77
2018-04-02T11:10:14.251Z,15.17
2018-04-02T11:12:41.900Z,15.10
2018-04-02T11:15:09.519Z,15.63
2018-04-02T11:17:37.144Z,14.73
2018-04-02T11:20:04.782Z,14.23
2018-04-02T11:22:32.934Z,14.00
2018-04-02T11:25:01.945Z,14.63
2018-04-02T11:27:29.540Z,14.17
2018-04-02T11:29:57.966Z,13.80
2018-04-02T11:32:25.600Z,12.60
2018-04-02T11:34:53.778Z,11.80
2018-04-02T11:37:21.473Z,11.20
2018-04-02T11:39:50.052Z,9.53
2018-04-02T11:42:17.670Z,9.37
2018-04-02T11:44:45.873Z,9.60
2018-04-02T11:47:14.443Z,9.23
2018-04-02T11:49:42.171Z,8.70
2018-04-02T11:52:09.729Z,7.67
2018-04-02T11:54:38.344Z,8.23
2018-04-02T11:57:06.009Z,7.67
2018-04-02T11:59:33.609Z,8.03
2018-04-02T12:02:01.616Z,8.63
2018-04-02T12:04:29.332Z,8.57
2018-04-02T12:06:56.922Z,8.37
2018-04-02T12:09:24.570Z,8.30
2018-04-02T12:11:52.186Z,8.40
2018-04-02T12:14:19.772Z,8.70
2018-04-02T12:16:48.192Z,7.20
2018-04-02T12:19:16.784Z,7.13
2018-04-02T12:21:45.277Z,7.30
2018-04-02T12:24:12.996Z,7.13
2018-04-02T12:26:40.660Z,6.33
2018-04-02T12:29:08.288Z,7.33
2018-04-02T12:31:35.951Z,8.30
2018-04-02T12:34:04.501Z,7.67
2018-04-02T12:36:32.143Z,7.13
2018-04-02T12:38:59.749Z,7.20
2018-04-02T12:41:27.406Z,8.23
2018-04-02T12:43:55.095Z,7.83
2018-04-02T12:46:22.760Z,8.13
2018-04-02T12:48:50.344Z,7.90
2018-04-02T12:51:18.040Z,8.70
2018-04-02T12:53:45.683Z,7.43
2018-04-02T12:56:14.582Z,7.50
2018-04-02T12:58:42.166Z,6.47
2018-04-02T13:01:11.139Z,7.10
2018-04-02T13:03:39.732Z,6.00
2018-04-02T13:06:07.324Z,5.73
2018-04-02T13:08:35.406Z,5.20
2018-04-02T13:11:03.999Z,4.93
2018-04-02T13:13:31.605Z,5.37
2018-04-02T13:15:59.473Z,5.37
2018-04-02T13:18:27.898Z,5.70
2018-04-02T13:20:55.481Z,6.17
2018-04-02T13:23:23.122Z,5.67
2018-04-02T13:25:50.722Z,6.10
2018-04-02T13:28:18.314Z,6.60
2018-04-02T13:30:46.660Z,7.00
2018-04-02T13:33:14.261Z,6.60
2018-04-02T13:35:42.001Z,7.57
2018-04-02T13:38:09.671Z,6.33
2018-04-02T13:40:38.130Z,4.77
2018-04-02T13:43:05.792Z,4.30
2018-04-02T13:45:33.396Z,4.80
2018-04-02T13:48:01.085Z,4.40
2018-04-02T13:50:28.699Z,4.50
2018-04-02T13:52:56.296Z,4.97
2018-04-02T13:55:24.723Z,6.00
2018-04-02T13:57:52.369Z,5.17
2018-04-02T14:00:20.804Z,5.80
2018-04-02T14:02:48.422Z,6.00
2018-04-02T14:05:16.056Z,4.90
2018-04-02T14:07:45.652Z,5.17
2018-04-02T14:10:13.418Z,4.73
2018-04-02T14:12:41.376Z,4.37
2018-04-02T14:15:09.040Z,4.33
2018-04-02T14:17:40.150Z,5.20
2018-04-02T14:20:10.330Z,4.87
2018-04-02T14:22:39.968Z,4.23
2018-04-02T14:25:07.716Z,4.47
2018-04-02T14:27:38.182Z,4.20
2018-04-02T14:30:08.381Z,3.80
2018-04-02T14:32:37.971Z,3.80
2018-04-02T14:37:46.281Z,4.00
2018-04-02T14:40:14.302Z,4.20
2018-04-02T14:42:44.970Z,3.90
2018-04-02T14:45:16.832Z,3.63
2018-04-02T14:47:47.952Z,4.30
2018-04-02T14:50:19.501Z,5.37
2018-04-02T14:52:50.253Z,5.47
2018-04-02T14:55:19.434Z,4.00
2018-04-02T14:57:50.509Z,4.23
2018-04-02T15:00:18.515Z,4.33
2018-04-02T15:02:47.066Z,4.13
2018-04-02T15:05:18.362Z,3.70
2018-04-02T15:10:20.014Z,4.00
2018-04-02T15:12:48.206Z,3.30
2018-04-02T15:15:16.109Z,3.27
2018-04-02T15:17:45.984Z,4.27
2018-04-02T15:20:13.821Z,3.43
2018-04-02T15:22:42.375Z,3.53
2018-04-02T15:25:11.173Z,4.10
2018-04-02T15:27:42.293Z,3.60
2018-04-02T15:30:11.235Z,3.73
2018-04-02T15:32:40.293Z,3.80
2018-04-02T15:35:09.206Z,3.27
2018-04-02T15:37:39.632Z,4.00
2018-04-02T15:40:09.498Z,3.53
2018-04-02T15:42:40.773Z,3.77
2018-04-02T15:45:08.728Z,3.03
2018-04-02T15:47:38.808Z,3.70
2018-04-02T15:50:07.404Z,3.27
2018-04-02T15:52:36.796Z,3.27
2018-04-02T15:55:06.831Z,3.67
2018-04-02T15:57:34.783Z,3.47
2018-04-02T16:00:05.188Z,3.47
2018-04-02T16:02:35.641Z,3.67
2018-04-02T16:05:05.734Z,3.30
2018-04-02T16:07:33.637Z,3.40
2018-04-02T16:10:02.789Z,3.57
2018-04-02T16:12:30.739Z,3.30
2018-04-02T16:14:58.699Z,3.90
2018-04-02T16:17:28.010Z,3.67
2018-04-02T16:19:59.864Z,3.30
2018-04-02T16:22:28.266Z,3.57
2018-04-02T16:24:56.006Z,3.70
2018-04-02T16:27:25.822Z,3.50
2018-04-02T16:29:53.624Z,3.57
2018-04-02T16:32:21.899Z,3.70
2018-04-02T16:34:50.092Z,3.80
2018-04-02T16:37:18.811Z,4.33
2018-04-02T16:39:46.769Z,4.17
2018-04-02T16:42:14.705Z,3.90
2018-04-02T16:44:42.599Z,3.93
2018-04-02T16:47:13.179Z,3.87
2018-04-02T16:49:40.961Z,4.83
2018-04-02T16:52:10.032Z,4.70
2018-04-02T16:54:37.715Z,4.27
2018-04-02T16:57:05.646Z,4.30
2018-04-02T16:59:34.144Z,3.90
2018-04-02T17:02:02.537Z,4.10
2018-04-02T17:04:30.794Z,4.17
2018-04-02T17:06:58.913Z,4.10
2018-04-02T17:09:28.035Z,4.10
2018-04-02T17:11:56.668Z,3.97
2018-04-02T17:14:25.408Z,4.10
2018-04-02T17:16:54.204Z,4.33
2018-04-02T17:19:22.011Z,4.37
2018-04-02T17:21:50.472Z,5.00
2018-04-02T17:24:18.859Z,5.17
2018-04-02T17:26:47.707Z,4.50
2018-04-02T17:29:16.379Z,4.77
2018-04-02T17:31:44.029Z,6.20
2018-04-02T17:34:11.805Z,6.17
2018-04-02T17:36:39.505Z,4.83
2018-04-02T17:39:09.503Z,5.03
2018-04-02T17:41:38.055Z,6.03
2018-04-02T17:44:06.826Z,3.80
2018-04-02T17:46:35.284Z,4.17
2018-04-02T17:49:03.092Z,4.67
2018-04-02T17:51:31.773Z,4.10
2018-04-02T17:53:59.420Z,3.70
2018-04-02T17:56:27.062Z,4.37
2018-04-02T17:58:54.671Z,4.33
2018-04-02T18:01:23.268Z,4.00
2018-04-02T18:03:50.947Z,4.87
2018-04-02T18:06:20.590Z,5.33
2018-04-02T18:08:48.221Z,5.67
2018-04-02T18:11:15.873Z,6.80
2018-04-02T18:13:44.460Z,6.43
2018-04-02T18:16:14.566Z,5.73
2018-04-02T18:18:42.714Z,5.00
2018-04-02T18:21:10.402Z,3.97
2018-04-02T18:23:38.931Z,3.90
2018-04-02T18:28:39.970Z,4.53
2018-04-02T18:31:07.971Z,4.27
2018-04-02T18:33:35.662Z,4.77
2018-04-02T18:36:03.548Z,4.30
2018-04-02T18:38:31.238Z,5.40
2018-04-02T18:40:58.892Z,4.37
2018-04-02T18:43:27.908Z,5.40
2018-04-02T18:45:55.522Z,4.67
2018-04-02T18:48:23.150Z,5.00
2018-04-02T18:50:50.762Z,8.10
2018-04-02T18:53:19.102Z,5.90
2018-04-02T18:55:46.779Z,6.37
2018-04-02T18:58:14.405Z,6.07
2018-04-02T19:00:42.039Z,7.70
2018-04-02T19:03:10.401Z,5.90
2018-04-02T19:05:37.999Z,6.40
2018-04-02T19:08:05.600Z,4.57
2018-04-02T19:10:33.280Z,4.77
2018-04-02T19:13:00.866Z,6.17
2018-04-02T19:15:29.245Z,6.37
2018-04-02T19:17:56.928Z,6.00
2018-04-02T19:20:25.273Z,6.80
2018-04-02T19:22:52.869Z,7.40
2018-04-02T19:25:20.454Z,7.17
2018-04-02T19:27:48.112Z,6.27
2018-04-02T19:30:16.472Z,6.00
2018-04-02T19:32:44.907Z,6.50
2018-04-02T19:35:12.492Z,5.97
2018-04-02T19:37:40.065Z,5.70
2018-04-02T19:40:07.682Z,5.90
2018-04-02T19:42:35.269Z,5.80
2018-04-02T19:45:03.296Z,5.37
2018-04-02T19:47:30.902Z,5.07
2018-04-02T19:49:58.483Z,5.50
2018-04-02T19:52:26.091Z,6.30
2018-04-02T19:54:53.690Z,5.60
2018-04-02T19:57:38.660Z,5.97
2018-04-02T20:00:06.288Z,7.03
2018-04-02T20:02:34.653Z,6.53
2018-04-02T20:05:02.334Z,6.57
2018-04-02T20:07:30.011Z,6.70
2018-04-02T20:09:58.345Z,6.33
2018-04-02T20:12:25.933Z,6.93
2018-04-02T20:14:53.511Z,6.97
2018-04-02T20:17:21.136Z,6.30
2018-04-02T20:19:48.711Z,5.80
2018-04-02T20:22:16.281Z,5.60
2018-04-02T20:24:43.993Z,5.80
2018-04-02T20:27:11.599Z,5.70
2018-04-02T20:29:39.175Z,6.10
2018-04-02T20:32:06.747Z,6.33
2018-04-02T20:34:34.390Z,6.07
2018-04-02T20:37:02.053Z,8.03
2018-04-02T20:39:30.136Z,8.97
2018-04-02T20:41:57.775Z,6.90
2018-04-02T20:44:25.419Z,6.67
2018-04-02T20:46:53.015Z,6.63
2018-04-02T20:49:21.376Z,8.23
2018-04-02T20:51:49.780Z,7.57
2018-04-02T20:54:17.399Z,7.97
2018-04-02T20:56:44.986Z,7.10
2018-04-02T20:59:12.558Z,7.20
2018-04-02T21:01:40.140Z,6.63
2018-04-02T21:04:07.748Z,6.70
2018-04-02T21:06:36.179Z,7.07
2018-04-02T21:09:03.783Z,6.10
2018-04-02T21:11:31.505Z,6.60
2018-04-02T21:13:59.130Z,5.60
2018-04-02T21:16:26.735Z,5.93
2018-04-02T21:18:54.425Z,5.87
2018-04-02T21:21:22.960Z,6.73
2018-04-02T21:23:51.565Z,6.70
2018-04-02T21:26:19.674Z,6.13
2018-04-02T21:28:49.438Z,6.03
2018-04-02T21:31:18.767Z,6.30
2018-04-02T21:33:47.423Z,5.83
2018-04-02T21:36:15.980Z,5.37
2018-04-02T21:38:43.628Z,5.80
2018-04-02T21:41:11.369Z,5.87
2018-04-02T21:43:38.966Z,7.37
2018-04-02T21:46:06.666Z,6.67
2018-04-02T21:48:34.289Z,5.93
2018-04-02T21:51:01.899Z,6.07
2018-04-02T21:53:29.750Z,6.20
2018-04-02T21:55:57.357Z,5.57
2018-04-02T21:58:25.750Z,5.57
2018-04-02T22:00:53.382Z,5.63
2018-04-02T22:03:21.007Z,5.50
2018-04-02T22:05:48.643Z,5.20
2018-04-02T22:08:16.487Z,5.13
2018-04-02T22:10:44.082Z,5.30
2018-04-02T22:13:12.520Z,5.20
2018-04-02T22:15:40.181Z,4.83
2018-04-02T22:18:07.766Z,4.93
2018-04-02T22:20:35.452Z,5.10
2018-04-02T22:23:03.034Z,5.07
2018-04-02T22:25:31.946Z,4.60
2018-04-02T22:27:59.584Z,5.20
2018-04-02T22:30:27.204Z,4.60
2018-04-02T22:32:54.869Z,4.80
2018-04-02T22:35:23.232Z,4.97
2018-04-02T22:37:50.817Z,4.80
2018-04-02T22:40:18.475Z,4.73
2018-04-02T22:42:46.581Z,4.57
2018-04-02T22:45:14.263Z,4.60
2018-04-02T22:47:41.901Z,4.40
2018-04-02T22:50:10.957Z,4.20
2018-04-02T22:52:38.620Z,4.63
2018-04-02T22:55:06.277Z,4.43
2018-04-02T22:57:34.124Z,4.50
2018-04-02T23:00:02.534Z,4.33
2018-04-02T23:02:30.123Z,4.40
2018-04-02T23:04:57.724Z,4.30
2018-04-02T23:07:25.368Z,4.40
2018-04-02T23:09:52.976Z,4.87
2018-04-02T23:12:20.835Z,4.43
2018-04-02T23:14:48.428Z,4.40
2018-04-02T23:17:16.016Z,4.00
2018-04-02T23:19:43.636Z,4.50
2018-04-02T23:22:11.242Z,4.27
2018-04-02T23:24:38.919Z,4.33
2018-04-02T23:27:07.285Z,4.23
2018-04-02T23:29:34.870Z,4.17
2018-04-02T23:32:03.254Z,4.23
2018-04-02T23:34:30.851Z,4.60
2018-04-02T23:36:58.499Z,4.60
2018-04-02T23:39:26.073Z,4.60
2018-04-02T23:41:53.652Z,4.80
2018-04-02T23:44:21.311Z,4.50
2018-04-02T23:46:48.910Z,4.73
2018-04-02T23:49:16.520Z,4.37
2018-04-02T23:51:44.095Z,5.00
2018-04-02T23:54:11.800Z,5.17
2018-04-02T23:56:39.394Z,5.53
2018-04-02T23:59:07.022Z,5.70
